Davenport, IA

2:21 AM CDT on May 24, 2015 (GMT -0500)
Southeast Davenport | | Change Station
CLOSE
Current Station
Personal Weather Station
Location: Davenport, IA
Elevation: 659 ft
Nearby Weather Stations

Elev 659 ft 41.54 °N, 90.56 °W | Updated 48 seconds ago

Mostly Cloudy
Mostly Cloudy
68.2 °F
Feels Like 68.2 °F
N
0.7
Wind Variable Wind from North
Gusts 1.3 mph

Today
High -- | Low -- °F
--% Chance of Precip.
Yesterday
High -- | Low -- °F
Precip. -- in
5:35 AM 8:23 PM
Waxing Crescent, 37% visible
Pressure 30.14 in
Visibility 10.0 miles
Clouds Mostly Cloudy 7000 ft
Mostly Cloudy 11000 ft
Dew Point 51 °F
Humidity 55%
Rainfall 0.00 in
Snow Depth Not available.
UV 0 out of 12
Pollen 8.60 out of 12
Air Quality Not available.
Flu Activity Sporadic
METAR KDVN 240652Z AUTO 16009KT 10SM BKN070 BKN110 20/08 A3015 RMK AO2 SLP204 T02000083 $

More Conditions Fewer Conditions

Pressure 30.14 in
Visibility 10.0 miles
Clouds Mostly Cloudy 7000 ft
Mostly Cloudy 11000 ft
Dew Point 51 °F
Humidity 55%
Rainfall 0.00 in
Snow Depth Not available.
UV 0 out of 12
Pollen 8.60 out of 12
Air Quality Not available.
Flu Activity Sporadic
METAR KDVN 240652Z AUTO 16009KT 10SM BKN070 BKN110 20/08 A3015 RMK AO2 SLP204 T02000083 $

More Conditions Fewer Conditions

10-Day Weather Forecast

Almanac

Astronomy

May. 24, 2015 Rise Set
Actual Time
Civil Twilight
Nautical Twilight
Astronomical Twilight
Moon
Length of Visible Light
Length of Day
Tomorrow will be .
, % of the Moon is Illuminated

Today's Extremes

State Highs State Lows

Community

WunderPhotos

Upload Photos

1,823,698 photos uploaded!

WunderBlogs® & News

Nearby

Air Quality

  Air Quality AQ Index Pollutant
Not available.

Snow Depth

Station Depth Elevation

Earthquake Activity

City Distance Mag. Time & Date
Minimum magnitude displayed is 2.5.

Coastal Water Temperatures

Place Temperature

Stations

Nearby Weather Stations

Station Location Temp. Windchill Dew Point Humidity Wind Precip. Elev Updated Type